Time;durP1;ratioP1;P1;durP2;ratioP2;P2;SDS_P1;SDS_P2;PMS_P1;PMS_P2;Temp;Humidity;BMP_temperature;BMP_pressure;BME280_temperature;BME280_humidity;BME280_pressure;Samples;Min_cycle;Max_cycle;Signal;HPM_P1;HPM_P2
2021/06/24 00:01:59;;;;;;;7.75;5.65;;;11.50;99.90;;;;;;5075363;28;20044;-77
2021/06/24 00:04:27;;;;;;;10.18;5.88;;;11.50;99.90;;;;;;5067222;28;20564;-81
2021/06/24 00:06:53;;;;;;;12.98;6.60;;;11.60;99.90;;;;;;5075487;28;20041;-78
2021/06/24 00:09:19;;;;;;;11.07;5.70;;;11.60;99.90;;;;;;5075654;28;20047;-75
2021/06/24 00:11:44;;;;;;;13.40;6.10;;;11.70;99.90;;;;;;5066536;28;20056;-77
2021/06/24 00:14:10;;;;;;;13.93;5.80;;;11.60;99.90;;;;;;5056531;28;20068;-78
2021/06/24 00:16:36;;;;;;;12.48;5.43;;;11.80;99.90;;;;;;5067996;28;20113;-78
2021/06/24 00:19:02;;;;;;;9.57;5.07;;;11.80;99.90;;;;;;5051982;28;20064;-77
2021/06/24 00:21:28;;;;;;;13.18;5.55;;;11.90;99.90;;;;;;5052651;28;20048;-77
2021/06/24 00:23:54;;;;;;;7.78;5.38;;;11.80;99.90;;;;;;5051757;28;20041;-78
2021/06/24 00:26:20;;;;;;;12.40;5.93;;;11.90;99.90;;;;;;5068031;28;20449;-78
2021/06/24 00:28:46;;;;;;;8.40;6.00;;;11.90;99.90;;;;;;5051874;28;20041;-78
2021/06/24 00:31:11;;;;;;;10.77;5.70;;;11.90;99.90;;;;;;5052502;28;20753;-78
2021/06/24 00:33:37;;;;;;;8.77;5.53;;;12.00;99.90;;;;;;5067951;28;20049;-78
2021/06/24 00:36:04;;;;;;;8.98;5.07;;;12.00;99.90;;;;;;5050558;28;20075;-78
2021/06/24 00:38:29;;;;;;;9.55;4.72;;;12.10;99.90;;;;;;5051087;28;20136;-77
2021/06/24 00:40:55;;;;;;;8.77;4.90;;;12.20;99.90;;;;;;5067516;28;20178;-77
2021/06/24 00:43:23;;;;;;;13.45;4.80;;;12.20;99.90;;;;;;5049895;28;20037;-77
2021/06/24 00:45:49;;;;;;;9.60;5.30;;;12.30;99.90;;;;;;5050120;28;20465;-78
2021/06/24 00:48:15;;;;;;;7.78;4.07;;;12.40;99.90;;;;;;5051680;28;20067;-78
2021/06/24 00:50:44;;;;;;;7.93;4.47;;;12.40;99.90;;;;;;5043070;28;20045;-78
2021/06/24 00:53:10;;;;;;;10.80;3.72;;;12.50;99.90;;;;;;5051080;28;20060;-77
2021/06/24 00:55:40;;;;;;;8.23;4.30;;;12.50;99.90;;;;;;5052001;28;20104;-78
2021/06/24 00:58:09;;;;;;;8.85;3.65;;;12.60;99.90;;;;;;5049897;28;20060;-77
2021/06/24 01:00:39;;;;;;;7.50;3.80;;;12.60;99.90;;;;;;5044716;28;20065;-78
2021/06/24 01:03:05;;;;;;;7.13;3.92;;;12.60;99.90;;;;;;5048468;28;20052;-78
2021/06/24 01:05:32;;;;;;;7.88;3.80;;;12.70;99.90;;;;;;5042591;28;20473;-77
2021/06/24 01:07:57;;;;;;;7.88;3.83;;;12.60;99.90;;;;;;5051518;28;20112;-78
2021/06/24 01:10:23;;;;;;;5.35;3.72;;;12.70;99.90;;;;;;5050882;28;20049;-77
2021/06/24 01:12:50;;;;;;;10.23;4.25;;;12.70;99.90;;;;;;5051532;28;20033;-78
2021/06/24 01:15:16;;;;;;;6.60;4.10;;;12.70;99.90;;;;;;5049495;28;20035;-78
2021/06/24 01:17:42;;;;;;;8.02;4.13;;;12.80;99.90;;;;;;5029951;28;20037;-77
2021/06/24 01:20:08;;;;;;;12.00;4.80;;;12.70;99.90;;;;;;5049088;28;20059;-77
2021/06/24 01:22:34;;;;;;;9.05;4.60;;;12.80;99.90;;;;;;5052490;28;20052;-77
2021/06/24 01:25:00;;;;;;;10.88;4.40;;;12.80;99.90;;;;;;5071139;28;20045;-77
2021/06/24 01:27:28;;;;;;;9.10;4.47;;;12.80;99.90;;;;;;5053343;28;20140;-77
2021/06/24 01:29:54;;;;;;;7.38;4.20;;;12.80;99.90;;;;;;5052773;28;20037;-77
2021/06/24 01:32:21;;;;;;;8.85;4.18;;;12.80;99.90;;;;;;5072208;28;20106;-78
2021/06/24 01:34:47;;;;;;;7.30;4.10;;;12.80;99.90;;;;;;5015370;28;20030;-78
2021/06/24 01:37:12;;;;;;;10.30;3.83;;;12.80;99.90;;;;;;5015511;28;20038;-78
2021/06/24 01:39:38;;;;;;;13.60;4.18;;;12.90;99.90;;;;;;5015449;28;20152;-77
2021/06/24 01:42:04;;;;;;;9.85;3.70;;;12.90;99.90;;;;;;5012983;28;20545;-77
2021/06/24 01:44:35;;;;;;;6.05;3.63;;;12.90;99.90;;;;;;5015656;28;20389;-77
2021/06/24 01:47:02;;;;;;;7.13;3.55;;;12.90;99.90;;;;;;5013755;28;20049;-78
2021/06/24 01:49:30;;;;;;;9.13;4.25;;;12.90;99.90;;;;;;5018747;28;20034;-78
2021/06/24 01:51:56;;;;;;;8.32;3.67;;;13.00;99.90;;;;;;5014198;28;20038;-78
2021/06/24 01:54:23;;;;;;;11.02;4.72;;;13.00;99.90;;;;;;5014950;28;20421;-78
2021/06/24 01:56:49;;;;;;;7.05;3.53;;;13.10;99.90;;;;;;5013030;28;20041;-78
2021/06/24 01:59:15;;;;;;;5.70;3.95;;;13.00;99.90;;;;;;5013554;28;20121;-77
2021/06/24 02:01:41;;;;;;;10.43;4.07;;;13.10;99.90;;;;;;5015287;28;20137;-78
2021/06/24 02:04:07;;;;;;;8.60;4.03;;;13.10;99.90;;;;;;5011109;28;20366;-78
2021/06/24 02:06:33;;;;;;;7.07;3.78;;;13.10;99.90;;;;;;5019406;28;20072;-78
2021/06/24 02:08:58;;;;;;;6.95;4.00;;;13.10;99.90;;;;;;5013276;28;20423;-78
2021/06/24 02:11:25;;;;;;;7.15;3.75;;;13.10;99.90;;;;;;5013087;28;20104;-78
2021/06/24 02:13:50;;;;;;;7.78;3.63;;;13.00;99.90;;;;;;5014064;28;20097;-78
2021/06/24 02:16:16;;;;;;;7.38;3.80;;;13.10;99.90;;;;;;5014948;28;20030;-76
2021/06/24 02:18:44;;;;;;;8.35;3.58;;;13.00;99.90;;;;;;5015460;28;20041;-78
2021/06/24 02:21:10;;;;;;;7.85;3.97;;;13.10;99.90;;;;;;5029741;28;20477;-78
2021/06/24 02:23:36;;;;;;;10.32;4.10;;;13.10;99.90;;;;;;5012707;28;20500;-78
2021/06/24 02:26:02;;;;;;;8.65;3.30;;;13.10;99.90;;;;;;5014487;28;20041;-79
2021/06/24 02:28:28;;;;;;;9.27;3.50;;;13.10;99.90;;;;;;5014018;28;20054;-78
2021/06/24 02:30:54;;;;;;;7.40;3.58;;;13.20;99.90;;;;;;4996521;28;20049;-78
2021/06/24 02:33:20;;;;;;;6.03;3.00;;;13.10;99.90;;;;;;5037157;28;20064;-78
2021/06/24 02:35:52;;;;;;;5.18;2.80;;;13.20;99.90;;;;;;5054244;28;20033;-78
2021/06/24 02:38:18;;;;;;;4.82;2.83;;;13.10;99.90;;;;;;5053832;28;20032;-78
2021/06/24 02:40:44;;;;;;;7.43;2.90;;;13.10;99.90;;;;;;5054374;28;20040;-78
2021/06/24 02:43:10;;;;;;;4.50;2.60;;;13.10;99.90;;;;;;5054087;28;20063;-78
2021/06/24 02:45:36;;;;;;;5.30;2.40;;;13.20;99.90;;;;;;5053710;28;20037;-78
2021/06/24 02:48:02;;;;;;;7.55;2.85;;;13.10;99.90;;;;;;5051825;28;20099;-78
2021/06/24 02:50:27;;;;;;;4.28;2.45;;;13.10;99.90;;;;;;5059896;28;20109;-78
2021/06/24 02:52:53;;;;;;;6.90;2.55;;;13.10;99.90;;;;;;5069636;28;20057;-78
2021/06/24 02:55:19;;;;;;;7.50;2.92;;;13.10;99.90;;;;;;5069594;28;20048;-78
2021/06/24 02:57:46;;;;;;;5.07;2.85;;;13.10;99.90;;;;;;5053446;28;20056;-78
2021/06/24 03:00:13;;;;;;;6.78;3.00;;;13.20;99.90;;;;;;5069916;28;20048;-79
2021/06/24 03:02:39;;;;;;;4.80;2.95;;;13.20;99.90;;;;;;5053944;28;20033;-79
2021/06/24 03:05:08;;;;;;;6.60;2.92;;;13.10;99.90;;;;;;5054227;28;20407;-78
2021/06/24 03:07:34;;;;;;;5.15;2.70;;;13.10;99.90;;;;;;5070305;28;20055;-79
2021/06/24 03:10:00;;;;;;;9.15;2.80;;;13.10;99.90;;;;;;5061575;28;20033;-79
2021/06/24 03:12:26;;;;;;;6.43;3.00;;;13.10;99.90;;;;;;5069027;28;20490;-78
2021/06/24 03:14:51;;;;;;;7.50;3.33;;;13.10;99.90;;;;;;5053754;28;20057;-78
2021/06/24 03:17:17;;;;;;;11.20;3.67;;;13.20;99.90;;;;;;5053789;28;20037;-78
2021/06/24 03:19:43;;;;;;;4.82;3.22;;;13.10;99.90;;;;;;5052796;28;20392;-79
2021/06/24 03:22:09;;;;;;;8.60;3.50;;;13.20;99.90;;;;;;5051987;28;20073;-78
2021/06/24 03:24:35;;;;;;;7.97;3.63;;;13.10;99.90;;;;;;5053624;28;20099;-79
2021/06/24 03:27:00;;;;;;;8.32;3.72;;;13.10;99.90;;;;;;5052840;28;20327;-78
2021/06/24 03:29:27;;;;;;;7.22;4.00;;;13.10;99.90;;;;;;5053154;28;20506;-78
2021/06/24 03:31:53;;;;;;;6.68;3.53;;;13.10;99.90;;;;;;5068624;28;20049;-79
2021/06/24 03:34:18;;;;;;;6.32;3.53;;;13.20;99.90;;;;;;5052657;28;20052;-78
2021/06/24 03:36:44;;;;;;;5.88;3.30;;;13.10;99.90;;;;;;5053428;28;20040;-78
2021/06/24 03:39:10;;;;;;;6.05;3.60;;;13.10;99.90;;;;;;5050054;28;20099;-78
2021/06/24 03:41:36;;;;;;;9.18;3.80;;;13.10;99.90;;;;;;5051221;28;20107;-78
2021/06/24 03:44:02;;;;;;;6.72;3.85;;;13.20;99.90;;;;;;5049044;28;20101;-78
2021/06/24 03:46:28;;;;;;;8.98;3.40;;;13.20;99.90;;;;;;5050954;28;20534;-78
2021/06/24 03:48:55;;;;;;;5.57;3.72;;;13.10;99.90;;;;;;5051222;28;20172;-78
2021/06/24 03:51:21;;;;;;;6.18;3.38;;;13.10;99.90;;;;;;5049818;28;20364;-78
2021/06/24 03:53:47;;;;;;;11.68;3.65;;;13.10;99.90;;;;;;5059335;28;20044;-78
2021/06/24 03:56:13;;;;;;;6.78;4.03;;;13.20;99.90;;;;;;5051124;28;20041;-79
2021/06/24 03:58:39;;;;;;;5.95;4.13;;;13.10;99.90;;;;;;5052982;28;20040;-78
2021/06/24 04:01:05;;;;;;;7.28;4.28;;;13.20;99.90;;;;;;5052491;28;20069;-78
2021/06/24 04:03:31;;;;;;;7.57;3.95;;;13.10;99.90;;;;;;5052473;28;20060;-78
2021/06/24 04:05:56;;;;;;;12.15;4.03;;;13.20;99.90;;;;;;5051976;28;20044;-79
2021/06/24 04:08:22;;;;;;;9.57;4.60;;;13.00;99.90;;;;;;5052420;28;20033;-78
2021/06/24 04:10:48;;;;;;;9.50;4.40;;;13.20;99.90;;;;;;5052101;28;20116;-78
2021/06/24 04:13:14;;;;;;;9.60;4.32;;;13.10;99.90;;;;;;5034238;28;20044;-77
2021/06/24 04:15:39;;;;;;;5.82;4.07;;;13.20;99.90;;;;;;5049658;28;20039;-78
2021/06/24 04:18:06;;;;;;;8.45;4.00;;;13.10;99.90;;;;;;5051860;28;20049;-78
2021/06/24 04:20:34;;;;;;;10.27;3.90;;;13.20;99.90;;;;;;5051088;28;20140;-78
2021/06/24 04:23:01;;;;;;;5.38;3.60;;;13.30;99.90;;;;;;5048886;28;20044;-78
2021/06/24 04:25:27;;;;;;;5.68;3.95;;;13.20;99.90;;;;;;5052503;28;20041;-78
2021/06/24 04:27:54;;;;;;;10.18;4.78;;;13.20;99.90;;;;;;5050146;28;20500;-78
2021/06/24 04:30:22;;;;;;;9.57;4.55;;;13.20;99.90;;;;;;5050884;28;20061;-78
2021/06/24 04:32:49;;;;;;;8.98;4.43;;;13.20;99.90;;;;;;5050189;28;20412;-78
2021/06/24 04:35:15;;;;;;;5.30;4.05;;;13.30;99.90;;;;;;5049840;28;20045;-78
2021/06/24 04:37:41;;;;;;;7.75;4.20;;;13.30;99.90;;;;;;5051844;28;20040;-78
2021/06/24 04:40:09;;;;;;;11.43;4.18;;;13.40;99.90;;;;;;5052202;28;20045;-78
2021/06/24 04:42:36;;;;;;;8.52;4.28;;;13.40;99.90;;;;;;5049896;28;20091;-78
2021/06/24 04:45:09;;;;;;;4.72;3.70;;;13.50;99.90;;;;;;5050988;28;20035;-78
2021/06/24 04:47:36;;;;;;;11.75;3.80;;;13.50;99.90;;;;;;5058353;28;20037;-78
2021/06/24 04:50:02;;;;;;;9.70;3.95;;;13.40;99.90;;;;;;5057047;28;20052;-79
2021/06/24 04:52:28;;;;;;;5.65;4.07;;;13.50;99.90;;;;;;5031957;28;20055;-78
2021/06/24 04:54:54;;;;;;;7.80;3.95;;;13.50;99.90;;;;;;5051890;28;20544;-78
2021/06/24 04:57:20;;;;;;;9.00;3.58;;;13.50;99.90;;;;;;5051358;28;20029;-78
2021/06/24 04:59:45;;;;;;;9.68;4.28;;;13.50;99.90;;;;;;5052028;28;20476;-78
2021/06/24 05:02:11;;;;;;;7.15;4.22;;;13.60;99.90;;;;;;5051209;28;20476;-78
2021/06/24 05:04:37;;;;;;;8.35;4.13;;;13.50;99.90;;;;;;5051378;28;20048;-78
2021/06/24 05:07:08;;;;;;;8.82;4.00;;;13.50;99.90;;;;;;5066812;28;20033;-78
2021/06/24 05:09:38;;;;;;;9.50;3.95;;;13.60;99.90;;;;;;5051540;28;20059;-78
2021/06/24 05:12:08;;;;;;;9.18;3.75;;;13.70;99.90;;;;;;5051704;28;20037;-78
2021/06/24 05:14:38;;;;;;;7.05;3.67;;;13.70;99.90;;;;;;5049339;28;20093;-79
2021/06/24 05:17:05;;;;;;;10.55;4.05;;;13.60;99.90;;;;;;5059381;28;20041;-78
2021/06/24 05:19:34;;;;;;;5.75;3.97;;;13.70;99.90;;;;;;5049559;28;20033;-79
2021/06/24 05:22:00;;;;;;;7.60;3.65;;;13.70;99.90;;;;;;5051083;28;20033;-78
2021/06/24 05:24:30;;;;;;;6.70;3.78;;;13.70;99.90;;;;;;5049562;28;20036;-79
2021/06/24 05:26:57;;;;;;;6.95;4.78;;;13.80;99.90;;;;;;5051359;28;20122;-78
2021/06/24 05:29:25;;;;;;;7.45;4.47;;;13.80;99.90;;;;;;5051757;28;20084;-79
2021/06/24 05:31:52;;;;;;;7.53;3.70;;;13.90;99.90;;;;;;5042048;28;20060;-78
2021/06/24 05:34:17;;;;;;;6.68;4.10;;;13.90;99.90;;;;;;5049777;28;20430;-78
2021/06/24 05:36:43;;;;;;;10.13;3.97;;;13.90;99.90;;;;;;5051585;28;20033;-78
2021/06/24 05:39:09;;;;;;;8.32;3.22;;;14.00;99.90;;;;;;5050829;28;20033;-78
2021/06/24 05:41:35;;;;;;;11.40;2.83;;;14.00;99.90;;;;;;5051597;28;20033;-79
2021/06/24 05:44:01;;;;;;;4.43;2.67;;;14.10;99.90;;;;;;5061970;28;20052;-78
2021/06/24 05:46:28;;;;;;;5.28;2.13;;;14.10;99.90;;;;;;5051020;28;20037;-79
2021/06/24 05:48:54;;;;;;;2.72;1.90;;;14.20;99.90;;;;;;5049358;28;20048;-79
2021/06/24 05:51:23;;;;;;;5.15;2.30;;;14.20;99.90;;;;;;5051269;28;20029;-79
2021/06/24 05:53:51;;;;;;;5.00;1.80;;;14.20;99.90;;;;;;5049098;28;20106;-79
2021/06/24 05:56:17;;;;;;;6.18;1.90;;;14.30;99.90;;;;;;5050795;28;20814;-78
2021/06/24 05:58:43;;;;;;;3.72;1.90;;;14.30;99.90;;;;;;5051206;28;20059;-78
2021/06/24 06:01:09;;;;;;;6.03;2.00;;;14.30;99.90;;;;;;5051249;28;20056;-79
2021/06/24 06:03:36;;;;;;;4.75;1.85;;;14.40;99.90;;;;;;5051216;28;20037;-78
2021/06/24 06:06:02;;;;;;;4.00;1.70;;;14.40;99.90;;;;;;5032673;28;20037;-78
2021/06/24 06:08:30;;;;;;;5.47;1.70;;;14.50;99.90;;;;;;5054487;28;20486;-79
2021/06/24 06:10:56;;;;;;;3.13;1.65;;;14.50;99.90;;;;;;5050350;28;20565;-78
2021/06/24 06:13:22;;;;;;;3.08;1.75;;;14.50;99.90;;;;;;5054814;28;20032;-79
2021/06/24 06:15:49;;;;;;;7.70;1.90;;;14.60;99.90;;;;;;5052732;28;20377;-78
2021/06/24 06:18:25;;;;;;;6.80;2.05;;;14.70;99.90;;;;;;5051243;28;20041;-78
2021/06/24 06:20:53;;;;;;;4.97;1.80;;;14.70;99.90;;;;;;5052260;28;20033;-78
2021/06/24 06:23:20;;;;;;;6.03;1.98;;;14.60;99.90;;;;;;5052512;28;20033;-78
2021/06/24 06:25:46;;;;;;;4.07;1.80;;;14.70;99.90;;;;;;5055442;28;20098;-80
2021/06/24 06:28:16;;;;;;;4.85;1.73;;;14.90;99.90;;;;;;5054207;28;20029;-79
2021/06/24 06:30:43;;;;;;;5.07;1.92;;;15.10;99.90;;;;;;5029021;28;20041;-78
2021/06/24 06:33:09;;;;;;;4.53;1.40;;;15.10;99.90;;;;;;5052553;28;20044;-79
2021/06/24 06:35:37;;;;;;;2.50;1.38;;;15.10;99.90;;;;;;5053612;28;20086;-79
2021/06/24 06:38:04;;;;;;;4.30;1.50;;;15.20;99.90;;;;;;5054142;28;20040;-79
2021/06/24 06:40:30;;;;;;;4.18;1.30;;;15.20;99.90;;;;;;5052448;28;20048;-79
2021/06/24 06:42:57;;;;;;;3.58;1.33;;;15.00;99.90;;;;;;5052513;28;20068;-80
2021/06/24 06:45:26;;;;;;;4.25;1.33;;;15.10;99.90;;;;;;5054494;28;20113;-79
2021/06/24 06:47:53;;;;;;;3.25;1.25;;;15.10;99.90;;;;;;5070121;28;20029;-79
2021/06/24 06:50:19;;;;;;;4.90;1.40;;;15.00;99.90;;;;;;5053500;28;20120;-78
2021/06/24 06:52:45;;;;;;;4.47;1.40;;;15.00;99.90;;;;;;5053837;28;20112;-80
2021/06/24 06:55:12;;;;;;;6.38;1.50;;;15.10;99.90;;;;;;5054676;28;20044;-78
2021/06/24 06:57:38;;;;;;;5.03;1.40;;;15.10;99.90;;;;;;5054141;28;20048;-79
2021/06/24 07:00:09;;;;;;;1.70;1.40;;;15.20;99.90;;;;;;5072051;28;20057;-78
2021/06/24 07:02:36;;;;;;;2.75;1.20;;;15.20;99.90;;;;;;5043797;28;20535;-78
2021/06/24 07:05:02;;;;;;;3.38;1.33;;;15.10;99.90;;;;;;5049525;28;20037;-78
2021/06/24 07:07:28;;;;;;;5.55;1.27;;;15.10;99.90;;;;;;5053757;28;20040;-79
2021/06/24 07:09:54;;;;;;;3.42;1.27;;;15.20;99.90;;;;;;5069207;28;20135;-78
2021/06/24 07:12:20;;;;;;;3.80;1.45;;;15.30;99.90;;;;;;5051907;28;20548;-78
2021/06/24 07:14:47;;;;;;;3.78;1.30;;;15.40;99.90;;;;;;5051892;28;20037;-79
2021/06/24 07:17:13;;;;;;;3.08;1.20;;;15.30;99.90;;;;;;5050819;28;20045;-79
2021/06/24 07:19:39;;;;;;;3.45;1.25;;;15.40;99.90;;;;;;5053840;28;20044;-78
2021/06/24 07:22:05;;;;;;;6.20;1.55;;;15.40;99.90;;;;;;5068514;28;20053;-79
2021/06/24 07:24:31;;;;;;;3.38;1.30;;;15.50;99.90;;;;;;5051215;28;20083;-80
2021/06/24 07:26:56;;;;;;;4.72;1.30;;;15.70;99.90;;;;;;5050449;28;20071;-79
2021/06/24 07:29:22;;;;;;;2.28;1.20;;;15.60;99.90;;;;;;5051496;28;20045;-78
2021/06/24 07:31:48;;;;;;;2.88;1.30;;;15.50;99.90;;;;;;5053952;28;20033;-79
2021/06/24 07:34:14;;;;;;;4.38;1.50;;;15.60;99.90;;;;;;5044136;28;20513;-78
2021/06/24 07:36:40;;;;;;;5.25;1.65;;;15.60;99.90;;;;;;5053327;28;20116;-79
2021/06/24 07:39:06;;;;;;;5.90;1.50;;;15.80;99.90;;;;;;5050898;28;20041;-78
2021/06/24 07:41:32;;;;;;;2.95;1.50;;;15.60;99.90;;;;;;5052965;28;20535;-79
2021/06/24 07:43:58;;;;;;;3.33;1.60;;;15.60;99.90;;;;;;5052969;28;20033;-78
2021/06/24 07:46:24;;;;;;;3.40;1.50;;;15.70;99.90;;;;;;5035746;28;20064;-79
2021/06/24 07:48:50;;;;;;;5.70;1.80;;;15.70;99.90;;;;;;5041963;28;20435;-78
2021/06/24 07:51:17;;;;;;;4.07;1.40;;;15.80;99.90;;;;;;5051193;28;20056;-79
2021/06/24 07:53:45;;;;;;;5.63;1.55;;;16.00;99.90;;;;;;5034441;28;20099;-78
2021/06/24 07:56:12;;;;;;;3.97;1.48;;;16.00;99.90;;;;;;5051855;28;20131;-80
2021/06/24 07:58:38;;;;;;;5.68;1.85;;;16.20;99.90;;;;;;5052798;28;20029;-78
2021/06/24 08:01:05;;;;;;;4.38;1.70;;;16.20;99.90;;;;;;5045886;28;20163;-79
2021/06/24 08:03:31;;;;;;;4.50;1.58;;;16.20;99.90;;;;;;5053528;28;20042;-79
2021/06/24 08:05:57;;;;;;;3.33;1.50;;;16.20;99.90;;;;;;5062007;28;20033;-79
2021/06/24 08:08:23;;;;;;;2.75;1.70;;;16.40;99.90;;;;;;5067576;28;20116;-80
2021/06/24 08:11:04;;;;;;;5.43;1.88;;;16.30;99.90;;;;;;5050060;28;20120;-79
2021/06/24 08:13:30;;;;;;;3.75;1.80;;;16.30;99.90;;;;;;5055882;28;20033;-79
2021/06/24 08:15:57;;;;;;;7.32;2.17;;;16.30;99.90;;;;;;5059445;28;20041;-79
2021/06/24 08:18:23;;;;;;;4.60;2.33;;;16.20;99.90;;;;;;5065800;28;20068;-78
2021/06/24 08:20:50;;;;;;;4.60;2.10;;;16.20;99.90;;;;;;5053310;28;20041;-78
2021/06/24 08:23:17;;;;;;;3.05;1.92;;;16.10;99.90;;;;;;5044385;28;20489;-79
2021/06/24 08:25:44;;;;;;;3.67;1.88;;;16.10;99.90;;;;;;5052659;28;20029;-78
2021/06/24 08:28:11;;;;;;;4.43;2.25;;;16.10;99.90;;;;;;5053224;28;20041;-80
2021/06/24 08:30:41;;;;;;;3.67;2.22;;;16.10;99.90;;;;;;5051667;28;20065;-79
2021/06/24 08:33:08;;;;;;;5.93;2.58;;;16.10;99.90;;;;;;5050707;28;20068;-79
2021/06/24 08:35:35;;;;;;;6.45;2.72;;;16.30;99.90;;;;;;5050561;28;20041;-79
2021/06/24 08:38:01;;;;;;;5.50;2.10;;;16.50;99.90;;;;;;5051316;28;20071;-79
2021/06/24 08:40:26;;;;;;;8.57;2.35;;;16.60;99.90;;;;;;5024609;28;20083;-79
2021/06/24 08:42:53;;;;;;;6.53;2.30;;;16.70;99.90;;;;;;5049800;28;20059;-80
2021/06/24 08:45:18;;;;;;;6.13;2.20;;;16.70;99.90;;;;;;5050727;28;20045;-79
2021/06/24 08:47:47;;;;;;;2.83;2.10;;;16.90;99.90;;;;;;5048484;28;20048;-80
2021/06/24 08:50:14;;;;;;;4.18;1.90;;;16.70;99.90;;;;;;5067675;28;20078;-79
2021/06/24 08:52:44;;;;;;;5.20;2.55;;;16.70;99.90;;;;;;5051393;28;20049;-79
2021/06/24 08:55:10;;;;;;;4.55;2.30;;;16.50;99.90;;;;;;5066474;28;20048;-80
2021/06/24 08:57:36;;;;;;;5.07;2.42;;;16.50;99.90;;;;;;5052135;28;20032;-79
2021/06/24 09:00:06;;;;;;;5.28;2.42;;;16.50;99.90;;;;;;5049809;28;20457;-79
2021/06/24 09:02:41;;;;;;;4.45;2.15;;;16.40;99.90;;;;;;5032284;28;20045;-80
2021/06/24 09:05:08;;;;;;;3.65;2.15;;;16.40;99.90;;;;;;5050470;28;20049;-79
2021/06/24 09:07:52;;;;;;;3.35;2.15;;;16.40;99.90;;;;;;5051538;28;20524;-80
2021/06/24 09:10:20;;;;;;;8.00;2.15;;;16.40;99.90;;;;;;5050130;28;20056;-80
2021/06/24 09:13:05;;;;;;;7.47;2.22;;;16.60;99.90;;;;;;5051550;28;20116;-79
2021/06/24 09:15:38;;;;;;;5.15;2.20;;;16.60;99.90;;;;;;5051493;28;20043;-79
2021/06/24 09:18:21;;;;;;;6.65;2.30;;;16.40;99.90;;;;;;5051885;28;20037;-80
2021/06/24 09:20:47;;;;;;;4.90;2.05;;;16.50;99.90;;;;;;5060837;28;20033;-79
2021/06/24 09:23:23;;;;;;;5.65;2.20;;;16.50;99.90;;;;;;5040938;28;20033;-79
2021/06/24 09:26:06;;;;;;;3.53;1.98;;;16.60;99.90;;;;;;5042902;28;20043;-79
2021/06/24 09:28:39;;;;;;;3.90;2.20;;;16.80;99.90;;;;;;5051239;28;20049;-80
2021/06/24 09:31:26;;;;;;;4.18;2.13;;;16.80;99.90;;;;;;5051874;28;20041;-80
2021/06/24 09:33:54;;;;;;;5.90;2.33;;;16.80;99.90;;;;;;5044304;28;20045;-80
2021/06/24 09:36:41;;;;;;;8.23;2.47;;;16.80;99.90;;;;;;5049801;28;20037;-80
2021/06/24 09:39:29;;;;;;;5.88;2.53;;;16.90;99.90;;;;;;5049217;28;20061;-80
2021/06/24 09:42:04;;;;;;;4.15;2.10;;;17.10;99.90;;;;;;5046603;28;20068;-79
2021/06/24 09:44:31;;;;;;;7.57;2.40;;;16.80;99.90;;;;;;5036183;28;20404;-79
2021/06/24 09:46:59;;;;;;;5.30;1.83;;;16.90;99.90;;;;;;5055166;28;20136;-80
2021/06/24 09:49:29;;;;;;;6.88;2.20;;;16.80;99.90;;;;;;5067513;28;20063;-79
2021/06/24 09:51:57;;;;;;;4.47;2.22;;;16.90;99.90;;;;;;5055201;28;20040;-80
2021/06/24 09:54:36;;;;;;;4.07;1.98;;;16.80;99.90;;;;;;5052548;28;20112;-80
2021/06/24 09:57:03;;;;;;;9.05;2.42;;;16.80;99.90;;;;;;5048535;28;20041;-79
2021/06/24 09:59:39;;;;;;;4.57;2.60;;;16.70;99.90;;;;;;5071070;28;20037;-79
2021/06/24 10:02:12;;;;;;;6.80;2.30;;;16.70;99.90;;;;;;5068662;28;20400;-79
2021/06/24 10:04:45;;;;;;;5.35;2.13;;;16.70;99.90;;;;;;5071919;28;20044;-79
2021/06/24 10:07:13;;;;;;;4.53;2.30;;;16.60;99.90;;;;;;5069210;28;20060;-80
2021/06/24 10:09:41;;;;;;;2.33;1.73;;;16.70;99.90;;;;;;5045794;28;20033;-80
2021/06/24 10:12:11;;;;;;;5.10;2.55;;;16.60;99.90;;;;;;5059641;28;20049;-79
2021/06/24 10:14:38;;;;;;;4.18;2.10;;;16.50;99.90;;;;;;5052119;28;20033;-79
2021/06/24 10:17:05;;;;;;;5.45;2.90;;;16.60;99.90;;;;;;5051701;28;20037;-79
2021/06/24 10:19:39;;;;;;;5.35;2.90;;;16.90;99.90;;;;;;5054707;28;20037;-80
2021/06/24 10:22:17;;;;;;;4.22;2.10;;;16.80;99.90;;;;;;5054615;28;20040;-80
2021/06/24 10:24:56;;;;;;;3.72;2.33;;;17.10;99.90;;;;;;5053838;28;20086;-79
2021/06/24 10:27:28;;;;;;;3.25;2.10;;;17.20;99.90;;;;;;5063144;28;20170;-79
2021/06/24 10:29:54;;;;;;;5.95;2.25;;;17.20;99.90;;;;;;5035496;28;20052;-79
2021/06/24 10:32:30;;;;;;;3.97;2.33;;;17.10;99.90;;;;;;5042023;28;20057;-79
2021/06/24 10:34:57;;;;;;;4.68;2.80;;;17.00;99.90;;;;;;5067811;28;20053;-80
2021/06/24 10:37:26;;;;;;;3.50;2.60;;;16.90;99.90;;;;;;5070729;28;20045;-80
2021/06/24 10:40:13;;;;;;;4.95;2.63;;;16.80;99.90;;;;;;5069886;28;20520;-80
2021/06/24 10:42:53;;;;;;;5.25;2.47;;;16.80;99.90;;;;;;5056306;28;20455;-80
2021/06/24 10:45:19;;;;;;;4.20;2.33;;;16.90;99.90;;;;;;5045435;28;20076;-79
2021/06/24 10:47:45;;;;;;;4.15;2.60;;;16.80;99.90;;;;;;5051621;28;20037;-80
2021/06/24 10:50:26;;;;;;;5.25;2.58;;;16.90;99.90;;;;;;5054200;28;20071;-79
2021/06/24 10:53:19;;;;;;;5.20;2.35;;;16.80;99.90;;;;;;5050850;28;20041;-79
2021/06/24 10:55:49;;;;;;;5.10;2.63;;;16.70;99.90;;;;;;5040397;28;20523;-80
2021/06/24 10:58:17;;;;;;;4.97;2.50;;;16.60;99.90;;;;;;5049995;28;20051;-79
2021/06/24 11:00:46;;;;;;;2.53;2.17;;;16.50;99.90;;;;;;5034607;28;20128;-78
2021/06/24 11:03:13;;;;;;;4.85;2.20;;;16.60;99.90;;;;;;5051135;28;20114;-78
2021/06/24 11:05:49;;;;;;;4.13;2.42;;;16.80;99.90;;;;;;5051516;28;20041;-79
2021/06/24 11:08:27;;;;;;;4.10;2.50;;;16.90;99.90;;;;;;5034402;28;20059;-79
2021/06/24 11:11:01;;;;;;;5.03;2.40;;;17.10;99.90;;;;;;5051384;28;20057;-79
2021/06/24 11:16:10;;;;;;;2.83;2.00;;;17.30;99.90;;;;;;5051863;28;20358;-80
2021/06/24 11:18:36;;;;;;;4.43;2.20;;;17.50;99.90;;;;;;5051283;28;20055;-78
2021/06/24 11:21:10;;;;;;;5.00;2.33;;;17.50;99.90;;;;;;5051339;28;20512;-79
2021/06/24 11:23:55;;;;;;;3.95;2.38;;;17.60;99.90;;;;;;5050426;28;20044;-79
2021/06/24 11:26:28;;;;;;;4.57;2.53;;;17.50;99.90;;;;;;5044316;28;20131;-79
2021/06/24 11:29:18;;;;;;;4.43;2.20;;;17.30;99.90;;;;;;5050575;28;20036;-79
2021/06/24 11:32:06;;;;;;;3.40;1.88;;;17.60;99.90;;;;;;5044370;28;20063;-80
2021/06/24 11:34:56;;;;;;;4.13;1.90;;;17.50;99.90;;;;;;5040296;28;20060;-79
2021/06/24 11:37:34;;;;;;;4.55;1.85;;;17.60;99.90;;;;;;5068472;28;20767;-79
2021/06/24 11:40:06;;;;;;;4.85;1.73;;;17.70;99.90;;;;;;5053334;28;20056;-79
2021/06/24 11:42:42;;;;;;;3.38;2.08;;;17.90;99.90;;;;;;5046569;28;20440;-79
2021/06/24 11:45:10;;;;;;;4.20;1.85;;;17.70;99.90;;;;;;5050335;28;20091;-78
2021/06/24 11:47:38;;;;;;;2.47;1.90;;;17.80;99.90;;;;;;5051210;28;20037;-79
2021/06/24 12:03:51;;;;;;;4.15;2.55;;;17.60;99.90;;;;;;5051546;28;20435;-80
2021/06/24 12:06:17;;;;;;;5.63;2.80;;;17.80;99.90;;;;;;5037592;28;20049;-79
2021/06/24 12:08:43;;;;;;;3.70;2.50;;;17.80;99.90;;;;;;5068482;28;20029;-79
2021/06/24 12:11:13;;;;;;;5.82;3.00;;;17.90;99.90;;;;;;5035386;28;20064;-79
2021/06/24 12:13:45;;;;;;;4.78;2.90;;;17.80;99.90;;;;;;5043604;28;20040;-78
2021/06/24 12:16:13;;;;;;;5.40;2.78;;;17.80;99.90;;;;;;5068599;28;20520;-79
2021/06/24 12:18:43;;;;;;;3.63;2.60;;;17.50;99.90;;;;;;5052104;28;20140;-80
2021/06/24 12:21:11;;;;;;;3.75;2.80;;;17.70;99.90;;;;;;5051646;28;20054;-79
2021/06/24 12:23:48;;;;;;;3.40;2.53;;;17.50;99.90;;;;;;5052012;28;20112;-79
2021/06/24 12:26:16;;;;;;;5.65;2.72;;;17.50;99.90;;;;;;5052578;28;20040;-80
2021/06/24 12:28:43;;;;;;;7.25;3.20;;;17.60;99.90;;;;;;5052374;28;21907;-79
2021/06/24 12:31:23;;;;;;;3.72;2.80;;;17.60;99.90;;;;;;5052611;28;20121;-79
2021/06/24 12:33:51;;;;;;;4.43;2.97;;;17.70;99.90;;;;;;5067473;28;20409;-79
2021/06/24 12:36:37;;;;;;;4.28;3.30;;;17.90;99.90;;;;;;5052197;28;20086;-79
2021/06/24 12:39:04;;;;;;;10.82;3.10;;;18.00;99.90;;;;;;5036701;28;20039;-79
2021/06/24 12:41:31;;;;;;;3.75;2.97;;;18.10;99.90;;;;;;5050381;28;20041;-80
2021/06/24 12:44:04;;;;;;;4.20;2.95;;;17.90;99.90;;;;;;5057385;28;20060;-80
2021/06/24 12:46:35;;;;;;;5.20;2.90;;;18.00;99.90;;;;;;5051818;28;20052;-78
2021/06/24 12:49:13;;;;;;;4.20;2.90;;;18.00;99.90;;;;;;5043971;28;20029;-78
2021/06/24 12:51:39;;;;;;;4.32;2.90;;;18.00;99.90;;;;;;5049887;28;20032;-78
2021/06/24 12:54:15;;;;;;;4.95;3.03;;;18.50;99.90;;;;;;5066329;28;20033;-79
2021/06/24 12:56:46;;;;;;;5.47;3.03;;;18.60;99.90;;;;;;5049981;28;20079;-79
2021/06/24 12:59:19;;;;;;;5.00;2.75;;;18.60;99.90;;;;;;5043762;28;20078;-82
2021/06/24 13:01:45;;;;;;;2.67;2.40;;;18.80;99.90;;;;;;5051962;28;20056;-80
2021/06/24 13:04:16;;;;;;;5.28;2.90;;;18.80;99.90;;;;;;5051126;28;20033;-80
2021/06/24 13:06:47;;;;;;;4.07;2.40;;;18.80;99.90;;;;;;5029289;28;20132;-79
2021/06/24 13:09:14;;;;;;;3.58;2.60;;;18.80;99.90;;;;;;5050162;28;20146;-79